Time;durP1;ratioP1;P1;durP2;ratioP2;P2;SDS_P1;SDS_P2;PMS_P1;PMS_P2;Temp;Humidity;BMP_temperature;BMP_pressure;BME280_temperature;BME280_humidity;BME280_pressure;Samples;Min_cycle;Max_cycle;Signal;HPM_P1;HPM_P2
2022/06/26 00:00:09;;;;;;;7.60;5.85;;;;;;;19.86;81.92;101006.06;2096051;28;24936;-70
2022/06/26 00:01:11;;;;;;;6.22;5.72;;;;;;;19.88;82.20;101004.13;2095347;28;39041;-70
2022/06/26 00:02:16;;;;;;;7.30;6.00;;;;;;;19.87;81.82;101005.97;2094491;28;22099;-70
2022/06/26 00:03:17;;;;;;;5.57;5.07;;;;;;;19.84;81.95;100996.16;2095698;28;37991;-70
2022/06/26 00:04:19;;;;;;;8.38;5.97;;;;;;;19.83;82.13;101005.28;2103854;28;20650;-70
2022/06/26 00:05:22;;;;;;;5.80;5.30;;;;;;;19.81;82.16;101000.91;2095918;28;20037;-70
2022/06/26 00:06:24;;;;;;;7.20;6.60;;;;;;;19.82;81.86;101006.25;2095694;28;36844;-70
2022/06/26 00:07:26;;;;;;;5.78;5.38;;;;;;;19.81;81.85;101004.50;2097666;28;28729;-70
2022/06/26 00:08:28;;;;;;;5.95;5.35;;;;;;;19.79;81.87;101011.88;2088054;28;27042;-70
2022/06/26 00:09:30;;;;;;;6.20;5.70;;;;;;;19.79;81.79;101009.16;2089093;28;25640;-70
2022/06/26 00:10:32;;;;;;;6.38;5.78;;;;;;;19.77;82.23;101011.09;2097009;28;20177;-70
2022/06/26 00:11:34;;;;;;;5.80;5.30;;;;;;;19.75;82.55;101006.72;2097566;28;21146;-69
2022/06/26 00:12:42;;;;;;;6.43;5.55;;;;;;;19.73;82.18;101004.09;2097629;28;22679;-70
2022/06/26 00:13:44;;;;;;;6.32;5.82;;;;;;;19.70;82.37;101006.94;2097237;28;31913;-70
2022/06/26 00:14:46;;;;;;;6.30;5.70;;;;;;;19.69;82.50;101013.38;2096777;28;28545;-70
2022/06/26 00:15:48;;;;;;;6.50;6.00;;;;;;;19.68;83.06;101014.31;2096935;28;20103;-70
2022/06/26 00:16:50;;;;;;;6.13;5.63;;;;;;;19.65;82.68;101011.81;2097312;28;30367;-70
2022/06/26 00:17:52;;;;;;;5.82;5.22;;;;;;;19.64;82.76;101007.34;2097675;28;28248;-70
2022/06/26 00:18:53;;;;;;;8.02;7.28;;;;;;;19.62;83.19;101012.84;2097548;28;20829;-70
2022/06/26 00:19:55;;;;;;;6.47;5.97;;;;;;;19.62;83.37;101009.28;2097778;28;22579;-70
2022/06/26 00:20:57;;;;;;;6.38;5.82;;;;;;;19.60;83.29;101013.94;2097579;28;22041;-70
2022/06/26 00:21:59;;;;;;;7.03;6.43;;;;;;;19.56;83.40;101007.81;2097755;28;20955;-70
2022/06/26 00:23:01;;;;;;;7.63;5.72;;;;;;;19.52;83.85;101011.63;2097425;28;23593;-70
2022/06/26 00:24:07;;;;;;;6.13;5.63;;;;;;;19.49;83.43;101003.69;2097620;28;21710;-70
2022/06/26 00:25:11;;;;;;;6.75;5.32;;;;;;;19.48;83.38;101009.22;2096699;28;27630;-70
2022/06/26 00:26:14;;;;;;;5.43;5.03;;;;;;;19.44;83.22;101013.97;2097417;28;20073;-70
2022/06/26 00:27:16;;;;;;;6.28;5.75;;;;;;;19.41;84.40;101009.56;2097880;28;20133;-70
2022/06/26 00:28:20;;;;;;;6.70;6.15;;;;;;;19.39;84.02;101011.50;2097180;28;20096;-70
2022/06/26 00:29:21;;;;;;;7.00;6.35;;;;;;;19.36;84.21;101006.28;2096974;28;20037;-70
2022/06/26 00:30:23;;;;;;;7.55;6.75;;;;;;;19.33;84.42;101005.56;2097257;28;20046;-70
2022/06/26 00:31:25;;;;;;;5.60;5.10;;;;;;;19.30;84.48;101003.91;2088337;28;20068;-71
2022/06/26 00:32:27;;;;;;;8.57;6.57;;;;;;;19.30;85.13;101011.19;2088798;28;23017;-70
2022/06/26 00:33:31;;;;;;;8.13;7.55;;;;;;;19.36;86.05;101010.81;2097294;28;20281;-70
2022/06/26 00:34:38;;;;;;;8.38;7.68;;;;;;;19.38;85.60;101008.88;2096842;28;21985;-70
2022/06/26 00:35:40;;;;;;;8.18;7.13;;;;;;;19.35;85.42;101015.38;2097011;28;20060;-70
2022/06/26 00:36:42;;;;;;;8.18;7.57;;;;;;;19.32;85.76;101010.09;2097273;28;20033;-70
2022/06/26 00:37:44;;;;;;;9.65;6.82;;;;;;;19.30;85.07;101011.19;2097412;28;22171;-69
2022/06/26 00:38:46;;;;;;;5.65;5.15;;;;;;;19.31;86.11;101007.47;2097859;28;20140;-70
2022/06/26 00:39:48;;;;;;;8.50;7.68;;;;;;;19.27;85.51;101007.69;2087572;28;32374;-70
2022/06/26 00:40:49;;;;;;;7.97;6.65;;;;;;;19.26;85.67;101008.63;2088917;28;20037;-70
2022/06/26 00:41:54;;;;;;;8.80;7.38;;;;;;;19.26;85.69;101010.47;2096365;28;25533;-70
2022/06/26 00:42:56;;;;;;;7.28;6.68;;;;;;;19.22;85.70;101006.16;2105270;28;23132;-70
2022/06/26 00:43:59;;;;;;;6.30;5.70;;;;;;;19.18;85.49;101004.59;2087959;28;26451;-70
2022/06/26 00:45:02;;;;;;;6.32;5.90;;;;;;;19.16;85.79;100998.41;2089108;28;20118;-70
2022/06/26 00:46:05;;;;;;;7.10;6.50;;;;;;;19.12;85.86;101002.25;2097486;28;20122;-70
2022/06/26 00:47:07;;;;;;;6.13;5.63;;;;;;;19.08;86.04;101002.44;2096841;28;20051;-70
2022/06/26 00:48:09;;;;;;;8.23;7.50;;;;;;;19.08;85.97;101007.00;2096897;28;26789;-70
2022/06/26 00:49:12;;;;;;;8.27;7.47;;;;;;;19.04;86.24;101006.28;2097144;28;20041;-70
2022/06/26 00:50:14;;;;;;;6.95;6.38;;;;;;;19.00;86.63;101009.25;2096376;28;22136;-70
2022/06/26 00:51:15;;;;;;;6.95;6.22;;;;;;;18.98;86.50;101005.75;2097135;28;20567;-70
2022/06/26 00:52:20;;;;;;;7.70;7.05;;;;;;;18.96;86.90;101004.97;2096597;28;33553;-70
2022/06/26 00:53:26;;;;;;;8.02;7.43;;;;;;;18.97;87.65;100999.47;2097411;28;20033;-70
2022/06/26 00:54:29;;;;;;;7.43;6.75;;;;;;;18.93;87.32;100999.72;2096856;28;20033;-70
2022/06/26 00:55:34;;;;;;;7.57;6.97;;;;;;;18.92;86.98;101001.56;2096883;28;20093;-70
2022/06/26 00:56:37;;;;;;;7.07;6.40;;;;;;;18.88;87.35;101000.00;2098038;28;20110;-70
2022/06/26 00:57:39;;;;;;;6.53;5.93;;;;;;;18.85;87.36;101002.88;2096579;28;29379;-70
2022/06/26 00:58:41;;;;;;;6.57;5.97;;;;;;;18.84;88.29;101006.53;2079894;28;20045;-70
2022/06/26 00:59:44;;;;;;;7.30;6.70;;;;;;;18.80;87.53;101008.50;2088643;28;20053;-70
2022/06/26 01:00:48;;;;;;;8.30;7.60;;;;;;;18.77;87.98;101002.38;2096708;28;20111;-70
2022/06/26 01:01:51;;;;;;;7.10;6.45;;;;;;;18.76;87.57;101006.06;2106151;28;20539;-70
2022/06/26 01:02:53;;;;;;;6.72;6.22;;;;;;;18.73;87.98;101006.25;2095843;28;20795;-70
2022/06/26 01:03:55;;;;;;;8.20;7.38;;;;;;;18.70;87.96;101008.16;2080354;28;22024;-70
2022/06/26 01:04:57;;;;;;;7.72;7.03;;;;;;;18.70;88.30;100999.16;2088460;28;23513;-70
2022/06/26 01:05:59;;;;;;;9.15;8.35;;;;;;;18.72;88.85;101005.38;2096579;28;20041;-70
2022/06/26 01:07:02;;;;;;;9.05;8.25;;;;;;;18.72;89.16;101005.38;2088248;28;20879;-70
2022/06/26 01:08:04;;;;;;;7.35;6.75;;;;;;;18.72;89.00;100993.63;2080862;28;20042;-69
2022/06/26 01:09:09;;;;;;;7.57;6.97;;;;;;;18.70;88.87;101001.88;2096475;28;20890;-70
2022/06/26 01:10:11;;;;;;;8.52;7.70;;;;;;;18.68;88.64;101004.66;2096909;28;20184;-70
2022/06/26 01:11:23;;;;;;;8.45;7.63;;;;;;;18.67;88.84;101005.63;2088478;28;20034;-70
2022/06/26 01:12:25;;;;;;;8.23;7.53;;;;;;;18.64;88.81;101003.06;2096865;28;20068;-70
2022/06/26 01:13:28;;;;;;;8.07;7.28;;;;;;;18.63;88.86;101001.34;2088524;28;20057;-70
2022/06/26 01:14:30;;;;;;;7.28;6.55;;;;;;;18.61;88.91;101005.06;2096801;28;20090;-70
2022/06/26 01:15:32;;;;;;;8.75;7.82;;;;;;;18.61;89.07;101010.50;2096322;28;21210;-70
2022/06/26 01:16:35;;;;;;;8.15;7.45;;;;;;;18.61;89.06;101007.78;2088139;28;20088;-70
2022/06/26 01:17:43;;;;;;;7.50;6.80;;;;;;;18.58;88.83;101005.28;2089334;28;20092;-70
2022/06/26 01:18:51;;;;;;;8.40;7.60;;;;;;;18.56;89.13;101004.47;2089362;28;20037;-70
2022/06/26 01:19:53;;;;;;;8.57;7.88;;;;;;;18.55;89.25;101003.59;2105605;28;20862;-70
2022/06/26 01:20:55;;;;;;;7.97;7.28;;;;;;;18.53;88.90;101000.09;2104619;28;20040;-70
2022/06/26 01:21:57;;;;;;;6.78;6.07;;;;;;;18.52;89.48;101001.06;2096895;28;20079;-70
2022/06/26 01:23:04;;;;;;;8.77;8.18;;;;;;;18.50;89.33;101000.25;2097104;28;20864;-70
2022/06/26 01:24:06;;;;;;;7.78;7.03;;;;;;;18.48;88.99;100994.94;2096815;28;20916;-70
2022/06/26 01:25:09;;;;;;;8.00;7.40;;;;;;;18.47;89.17;100995.03;2087990;28;20151;-70
2022/06/26 01:26:12;;;;;;;8.30;7.60;;;;;;;18.44;89.27;100998.75;2095814;28;20041;-70
2022/06/26 01:27:18;;;;;;;8.40;7.70;;;;;;;18.41;89.52;100996.25;2104721;28;20056;-70
2022/06/26 01:28:20;;;;;;;7.00;6.50;;;;;;;18.41;89.58;100995.34;2096673;28;20134;-70
2022/06/26 01:29:22;;;;;;;10.63;9.68;;;;;;;18.40;89.75;100993.59;2087955;28;20033;-70
2022/06/26 01:30:24;;;;;;;8.65;7.97;;;;;;;18.39;90.14;100997.25;2096407;28;20037;-70
2022/06/26 01:31:27;;;;;;;9.68;8.88;;;;;;;18.37;89.95;101001.91;2104473;28;20119;-70
2022/06/26 01:32:32;;;;;;;10.30;9.30;;;;;;;18.40;90.82;100993.59;2104687;28;20133;-70
2022/06/26 01:33:36;;;;;;;10.95;9.95;;;;;;;18.39;90.51;101003.56;2096206;28;21113;-70
2022/06/26 01:34:39;;;;;;;10.43;9.35;;;;;;;18.38;90.40;101000.94;2080417;28;20993;-70
2022/06/26 01:35:43;;;;;;;9.63;8.73;;;;;;;18.36;90.44;101003.75;2088494;28;20717;-70
2022/06/26 01:36:47;;;;;;;11.80;10.73;;;;;;;18.38;90.84;101006.38;2096566;28;20081;-70
2022/06/26 01:37:49;;;;;;;11.32;10.30;;;;;;;18.38;90.70;101004.53;2096326;28;26131;-70
2022/06/26 01:38:51;;;;;;;10.90;9.90;;;;;;;18.36;90.81;101006.44;2096707;28;20040;-70
2022/06/26 01:39:54;;;;;;;12.27;11.18;;;;;;;18.37;90.76;100999.19;2096191;28;20175;-70
2022/06/26 01:40:57;;;;;;;12.88;11.77;;;;;;;18.40;91.70;100990.88;2096402;28;20048;-70
2022/06/26 01:42:00;;;;;;;12.00;10.82;;;;;;;18.40;91.42;100993.59;2080232;28;20081;-70
2022/06/26 01:43:02;;;;;;;11.20;10.18;;;;;;;18.40;91.48;100993.59;2088763;28;20912;-70
2022/06/26 01:44:07;;;;;;;11.63;10.63;;;;;;;18.38;91.51;101000.94;2096253;28;20053;-70
2022/06/26 01:45:09;;;;;;;11.18;10.27;;;;;;;18.38;91.39;101000.94;2096249;28;25452;-70
2022/06/26 01:46:11;;;;;;;11.55;10.13;;;;;;;18.36;91.54;101003.75;2096649;28;20866;-70
2022/06/26 01:47:13;;;;;;;11.15;10.02;;;;;;;18.37;91.27;101004.59;2096289;28;20088;-70
2022/06/26 01:48:17;;;;;;;12.30;11.15;;;;;;;18.39;91.90;101008.09;2096341;28;20164;-70
2022/06/26 01:49:21;;;;;;;12.15;10.95;;;;;;;18.37;91.83;101007.31;2095904;28;20048;-70
2022/06/26 01:50:22;;;;;;;12.15;11.25;;;;;;;18.36;91.86;101005.56;2096725;28;20910;-70
2022/06/26 01:51:24;;;;;;;13.82;12.60;;;;;;;18.36;92.34;101002.84;2088083;28;20046;-70
2022/06/26 01:52:28;;;;;;;12.10;11.02;;;;;;;18.34;92.20;101004.75;2088217;28;20130;-69
2022/06/26 01:53:31;;;;;;;12.60;11.50;;;;;;;18.35;92.17;101004.69;2096713;28;20041;-70
2022/06/26 01:54:34;;;;;;;12.52;11.50;;;;;;;18.33;92.31;101008.44;2096045;28;20119;-70
2022/06/26 01:55:36;;;;;;;10.60;9.75;;;;;;;18.33;92.27;101003.03;2097467;28;21463;-69
2022/06/26 01:56:43;;;;;;;12.52;11.45;;;;;;;18.38;93.20;101003.66;2087832;28;20328;-70
2022/06/26 01:57:44;;;;;;;12.65;11.43;;;;;;;18.34;92.37;101013.78;2089603;28;20049;-70
2022/06/26 01:59:00;;;;;;;11.80;10.80;;;;;;;18.33;92.37;101008.44;2095288;28;20076;-70
2022/06/26 02:00:14;;;;;;;11.32;10.00;;;;;;;18.31;92.07;101012.09;2090029;28;20957;-70
2022/06/26 02:01:16;;;;;;;12.23;11.07;;;;;;;18.29;92.16;101008.59;2095951;28;38865;-70
2022/06/26 02:02:18;;;;;;;10.98;10.02;;;;;;;18.28;92.10;101005.97;2096100;28;20049;-70
2022/06/26 02:03:22;;;;;;;11.15;10.15;;;;;;;18.27;92.21;101013.25;2087769;28;20041;-70
2022/06/26 02:04:24;;;;;;;10.77;9.77;;;;;;;18.23;92.42;100998.13;2096811;28;21072;-70
2022/06/26 02:05:29;;;;;;;12.65;11.32;;;;;;;18.24;92.81;100998.97;2103624;28;20991;-70
2022/06/26 02:06:30;;;;;;;11.05;10.15;;;;;;;18.23;92.11;101010.75;2104516;28;20187;-70
2022/06/26 02:07:32;;;;;;;11.32;10.07;;;;;;;18.23;93.02;101003.53;2096814;28;20049;-70
2022/06/26 02:08:36;;;;;;;11.48;10.57;;;;;;;18.22;92.74;101003.63;2096097;28;20901;-69
2022/06/26 02:13:46;;;;;;;11.68;10.70;;;;;;;18.16;93.69;101002.13;2098937;28;20087;-70
2022/06/26 02:14:48;;;;;;;10.13;9.13;;;;;;;18.14;93.17;100998.59;2095977;28;20164;-70
2022/06/26 02:15:51;;;;;;;11.77;10.38;;;;;;;18.15;93.01;100994.94;2095943;28;20878;-70
2022/06/26 02:16:53;;;;;;;10.20;9.40;;;;;;;18.11;92.65;100994.22;2087839;28;20028;-70
2022/06/26 02:17:55;;;;;;;10.80;9.80;;;;;;;18.09;92.50;100995.28;2096093;28;20078;-70
2022/06/26 02:18:59;;;;;;;10.80;8.95;;;;;;;18.10;92.71;101000.56;2095147;28;20037;-70
2022/06/26 02:20:01;;;;;;;9.73;8.82;;;;;;;18.09;92.98;100995.28;2096456;28;20045;-70
2022/06/26 02:21:08;;;;;;;11.60;10.52;;;;;;;18.07;92.73;100999.88;2104717;28;20141;-70
2022/06/26 02:22:10;;;;;;;10.82;9.65;;;;;;;18.06;92.83;100995.44;2095508;28;25353;-70
2022/06/26 02:23:14;;;;;;;9.68;8.30;;;;;;;18.03;92.85;100995.56;2096473;28;20780;-70
2022/06/26 02:24:15;;;;;;;13.27;10.95;;;;;;;18.03;92.62;100996.44;2104739;28;20049;-70
2022/06/26 02:25:18;;;;;;;9.77;9.02;;;;;;;18.02;92.92;100994.72;2096242;28;20037;-70
2022/06/26 02:26:21;;;;;;;10.70;9.82;;;;;;;18.00;92.62;100995.72;2088130;28;20045;-70
2022/06/26 02:27:28;;;;;;;9.73;8.63;;;;;;;17.98;92.84;100989.53;2088667;28;20224;-70
2022/06/26 02:28:31;;;;;;;10.13;9.13;;;;;;;17.97;92.46;100995.91;2095402;28;29399;-70
2022/06/26 02:29:35;;;;;;;11.38;10.32;;;;;;;17.96;92.64;100999.56;2095666;28;20041;-70
2022/06/26 02:30:39;;;;;;;11.60;10.45;;;;;;;17.93;92.70;101001.50;2096825;28;20029;-70
2022/06/26 02:31:44;;;;;;;10.80;9.85;;;;;;;17.91;92.70;101003.41;2087639;28;20842;-70
2022/06/26 02:32:48;;;;;;;9.98;9.18;;;;;;;17.89;92.37;100994.50;2088588;28;20254;-70
2022/06/26 02:33:51;;;;;;;11.40;10.40;;;;;;;17.87;92.54;101000.94;2088098;28;20050;-70
2022/06/26 02:34:52;;;;;;;10.63;9.73;;;;;;;17.85;92.34;100994.69;2096218;28;20087;-70
2022/06/26 02:35:57;;;;;;;10.32;9.32;;;;;;;17.81;92.47;100996.69;2104198;28;20040;-70
2022/06/26 02:36:59;;;;;;;10.60;9.50;;;;;;;17.82;92.21;100998.44;2095835;28;20045;-70
2022/06/26 02:38:02;;;;;;;12.00;10.45;;;;;;;17.85;92.28;100998.28;2096670;28;20183;-70
2022/06/26 02:39:06;;;;;;;12.07;10.90;;;;;;;17.84;91.94;100991.13;2104194;28;20040;-70
2022/06/26 02:40:08;;;;;;;10.57;9.57;;;;;;;17.86;91.99;100999.19;2104242;28;20040;-70
2022/06/26 02:41:11;;;;;;;11.50;10.60;;;;;;;17.86;92.11;100994.66;2104091;28;20036;-70
2022/06/26 02:42:15;;;;;;;12.30;10.98;;;;;;;17.88;92.18;100998.16;2096048;28;20155;-70
2022/06/26 02:43:19;;;;;;;11.50;10.40;;;;;;;17.89;92.00;100993.59;2096378;28;20138;-70
2022/06/26 02:44:23;;;;;;;11.65;10.65;;;;;;;17.90;91.73;100989.94;2096173;28;21010;-70
2022/06/26 02:45:27;;;;;;;12.85;10.32;;;;;;;17.91;91.48;100989.00;2087762;28;20120;-70
2022/06/26 02:46:29;;;;;;;11.90;10.80;;;;;;;17.91;91.86;100987.16;2087755;28;20029;-70
2022/06/26 02:47:31;;;;;;;11.75;10.68;;;;;;;17.92;90.94;100982.59;2087840;28;20053;-69
2022/06/26 02:48:36;;;;;;;11.00;9.90;;;;;;;17.96;91.01;100991.44;2087677;28;20096;-70
2022/06/26 02:49:39;;;;;;;10.80;9.52;;;;;;;17.89;90.54;100980.94;2072062;28;20971;-70
2022/06/26 02:50:42;;;;;;;11.02;9.98;;;;;;;17.89;90.78;100989.06;2079520;28;20260;-70
2022/06/26 02:51:46;;;;;;;9.82;8.98;;;;;;;17.89;90.84;100988.19;2079947;28;20961;-70
2022/06/26 02:52:48;;;;;;;11.55;10.48;;;;;;;17.91;90.69;100981.75;2079368;28;20037;-70
2022/06/26 02:53:50;;;;;;;10.85;9.85;;;;;;;17.89;90.72;100983.66;2079268;28;20042;-70
2022/06/26 02:54:52;;;;;;;9.40;8.60;;;;;;;17.87;90.60;100980.16;2087390;28;21098;-70
2022/06/26 02:55:53;;;;;;;9.85;8.85;;;;;;;17.87;90.41;100982.88;2086975;28;20204;-70
2022/06/26 02:56:57;;;;;;;11.52;9.73;;;;;;;17.86;90.39;100982.94;2079494;28;20177;-70
2022/06/26 02:58:00;;;;;;;9.43;8.63;;;;;;;17.85;90.20;100986.56;2079604;28;20157;-70
2022/06/26 02:59:03;;;;;;;10.13;9.18;;;;;;;17.82;90.07;100990.31;2096121;28;20087;-70
2022/06/26 03:00:10;;;;;;;10.43;8.23;;;;;;;17.81;90.18;100993.09;2095719;28;20045;-70
2022/06/26 03:01:18;;;;;;;10.13;9.30;;;;;;;17.77;90.39;100992.38;2087933;28;20046;-70
2022/06/26 03:02:20;;;;;;;10.05;8.95;;;;;;;17.75;90.01;100994.31;2088542;28;20045;-70
2022/06/26 03:03:46;;;;;;;10.02;8.55;;;;;;;17.73;90.15;100994.38;2098759;28;20117;-70
2022/06/26 03:04:48;;;;;;;9.93;8.93;;;;;;;17.72;90.23;100994.47;2096037;28;20056;-70
2022/06/26 03:05:52;;;;;;;9.32;8.30;;;;;;;17.73;90.71;100994.38;2096343;28;20798;-70
2022/06/26 03:06:58;;;;;;;9.70;8.77;;;;;;;17.72;90.13;101002.59;2104514;28;20052;-70
2022/06/26 03:08:00;;;;;;;10.32;9.43;;;;;;;17.72;90.56;100987.19;2096619;28;20181;-70
2022/06/26 03:09:02;;;;;;;9.90;8.63;;;;;;;17.70;90.16;100990.97;2087815;28;20033;-70
2022/06/26 03:10:07;;;;;;;10.85;9.75;;;;;;;17.70;90.19;100988.25;2087405;28;20915;-70
2022/06/26 03:11:12;;;;;;;12.07;9.70;;;;;;;17.71;90.13;100993.59;2095831;28;22496;-70
2022/06/26 03:12:14;;;;;;;10.98;9.18;;;;;;;17.69;90.51;100990.09;2094996;28;20061;-70
2022/06/26 03:13:17;;;;;;;9.57;8.57;;;;;;;17.66;90.05;100987.53;2088023;28;20172;-70
2022/06/26 03:14:19;;;;;;;7.85;7.25;;;;;;;17.67;90.11;100993.81;2087533;28;20077;-70
2022/06/26 03:15:24;;;;;;;9.60;8.80;;;;;;;17.66;89.86;100992.09;2088174;28;20101;-70
2022/06/26 03:16:30;;;;;;;9.90;8.93;;;;;;;17.64;89.89;100989.44;2088569;28;20049;-70
2022/06/26 03:17:33;;;;;;;9.13;8.23;;;;;;;17.65;89.58;100996.59;2096020;28;20218;-70
2022/06/26 03:18:40;;;;;;;9.52;8.60;;;;;;;17.64;90.00;100992.16;2096251;28;20894;-70
2022/06/26 03:19:44;;;;;;;9.15;8.25;;;;;;;17.64;89.68;100988.53;2088156;28;20092;-70
2022/06/26 03:20:46;;;;;;;9.18;8.27;;;;;;;17.66;89.66;100992.94;2087824;28;20177;-70
2022/06/26 03:21:48;;;;;;;10.57;9.43;;;;;;;17.66;89.21;100998.38;2095948;28;20231;-70
2022/06/26 03:22:50;;;;;;;8.60;7.82;;;;;;;17.68;89.39;100990.16;2095921;28;20041;-70
2022/06/26 03:24:03;;;;;;;8.38;7.57;;;;;;;17.71;88.93;100992.69;2087804;28;20070;-70
2022/06/26 03:25:08;;;;;;;9.25;8.10;;;;;;;17.70;88.38;100986.41;2097708;28;20130;-70
2022/06/26 03:26:13;;;;;;;8.93;8.18;;;;;;;17.71;88.44;100995.41;2088002;28;20081;-70
2022/06/26 03:27:15;;;;;;;8.68;7.90;;;;;;;17.71;88.35;100980.06;2080109;28;20933;-70
2022/06/26 03:28:20;;;;;;;9.07;8.18;;;;;;;17.75;88.07;100992.47;2095542;28;20381;-69
2022/06/26 03:29:22;;;;;;;7.50;6.80;;;;;;;17.78;87.70;100975.16;2096001;28;21023;-70
2022/06/26 03:30:24;;;;;;;8.55;7.68;;;;;;;17.82;87.72;100987.63;2095739;28;23684;-70
2022/06/26 03:31:29;;;;;;;7.95;7.25;;;;;;;17.84;87.15;100985.69;2096673;28;20894;-70
2022/06/26 03:32:34;;;;;;;7.93;7.22;;;;;;;17.88;87.05;100981.88;2104488;28;20877;-70
2022/06/26 03:33:40;;;;;;;9.70;7.65;;;;;;;17.92;86.61;100986.19;2095273;28;20048;-70
2022/06/26 03:34:42;;;;;;;7.53;6.82;;;;;;;17.95;86.65;100982.44;2095997;28;20053;-70
2022/06/26 03:35:44;;;;;;;6.72;6.13;;;;;;;17.98;85.99;100981.41;2096518;28;20084;-70
2022/06/26 03:36:46;;;;;;;8.00;7.30;;;;;;;18.01;85.92;100978.53;2095781;28;20068;-70
2022/06/26 03:37:48;;;;;;;6.97;6.25;;;;;;;18.02;86.26;100974.88;2104366;28;26568;-70
2022/06/26 03:38:51;;;;;;;8.70;6.95;;;;;;;18.04;85.75;100978.38;2095852;28;20041;-70
2022/06/26 03:39:53;;;;;;;7.45;6.85;;;;;;;18.06;85.04;100977.31;2096271;28;20084;-70
2022/06/26 03:40:55;;;;;;;7.32;6.53;;;;;;;18.09;85.15;100982.59;2113707;28;20036;-70
2022/06/26 03:41:58;;;;;;;7.30;6.60;;;;;;;18.10;85.06;100976.19;2105756;28;20048;-70
2022/06/26 03:43:04;;;;;;;6.13;5.55;;;;;;;18.13;84.91;100986.00;2097984;28;20047;-71
2022/06/26 03:44:19;;;;;;;7.07;6.18;;;;;;;18.15;84.63;100988.63;2097627;28;20096;-70
2022/06/26 03:45:22;;;;;;;6.85;6.05;;;;;;;18.16;84.68;100990.38;2080894;28;20930;-70
2022/06/26 03:46:24;;;;;;;9.27;6.88;;;;;;;18.17;84.18;100987.59;2089281;28;21115;-70
2022/06/26 03:47:26;;;;;;;7.38;6.32;;;;;;;18.20;83.84;100992.84;2104750;28;20040;-70
2022/06/26 03:48:30;;;;;;;7.85;6.45;;;;;;;18.22;83.21;100996.34;2105660;28;20088;-70
2022/06/26 03:49:32;;;;;;;7.22;5.90;;;;;;;18.26;82.87;101008.75;2097119;28;20106;-70
2022/06/26 03:50:35;;;;;;;6.75;6.05;;;;;;;18.28;83.13;100998.72;2097095;28;20173;-70
2022/06/26 03:51:37;;;;;;;6.63;6.03;;;;;;;18.31;82.88;101006.69;2105656;28;20146;-70
2022/06/26 03:52:41;;;;;;;6.15;5.65;;;;;;;18.36;82.94;101002.84;2097955;28;20080;-70
2022/06/26 03:53:47;;;;;;;6.50;5.90;;;;;;;18.41;82.70;101019.75;2097177;28;20139;-70
2022/06/26 03:54:51;;;;;;;6.38;5.78;;;;;;;18.43;82.15;101024.13;2089724;28;20046;-70
2022/06/26 03:55:59;;;;;;;7.20;6.40;;;;;;;18.44;82.16;101042.13;2097913;28;20064;-70
2022/06/26 03:57:02;;;;;;;6.55;5.75;;;;;;;18.47;81.94;101044.69;2089078;28;20955;-70
2022/06/26 03:58:07;;;;;;;5.97;5.47;;;;;;;18.48;81.29;101057.28;2089587;28;20131;-70
2022/06/26 03:59:09;;;;;;;6.88;5.47;;;;;;;18.59;81.60;101053.09;2089260;28;20041;-70
2022/06/26 04:00:12;;;;;;;6.63;5.53;;;;;;;18.66;80.99;101050.00;2096052;28;20147;-70
2022/06/26 04:01:17;;;;;;;6.38;5.70;;;;;;;18.68;81.05;101048.06;2094552;28;20184;-70
2022/06/26 04:02:23;;;;;;;6.97;5.95;;;;;;;18.67;80.93;101040.88;2090116;28;20037;-70
2022/06/26 04:03:27;;;;;;;5.43;5.03;;;;;;;18.77;80.05;101049.41;2089072;28;20740;-70
2022/06/26 04:04:29;;;;;;;6.28;5.68;;;;;;;18.89;79.16;101047.84;2088986;28;20041;-70
2022/06/26 04:05:38;;;;;;;6.57;5.95;;;;;;;19.02;79.14;101048.94;2088861;28;20050;-70
2022/06/26 04:06:40;;;;;;;7.60;5.53;;;;;;;19.17;78.49;101049.03;2091438;28;20092;-71
2022/06/26 04:07:51;;;;;;;6.20;5.60;;;;;;;19.33;77.21;101054.44;2105842;28;20049;-70
2022/06/26 04:08:59;;;;;;;6.13;5.22;;;;;;;19.57;77.39;101057.56;2097334;28;20076;-71
2022/06/26 04:10:01;;;;;;;5.43;5.03;;;;;;;19.63;76.50;101049.94;2096923;28;20049;-71
2022/06/26 04:11:03;;;;;;;6.22;5.63;;;;;;;19.96;75.12;101053.47;2097050;28;20048;-71
2022/06/26 04:12:09;;;;;;;5.47;5.07;;;;;;;20.38;73.72;101049.06;2097334;28;20097;-70
2022/06/26 04:13:18;;;;;;;6.45;5.13;;;;;;;20.71;72.76;101046.09;2105107;28;20830;-69
2022/06/26 04:14:20;;;;;;;5.10;4.63;;;;;;;20.98;71.12;101051.59;2096635;28;20916;-70
2022/06/26 04:15:22;;;;;;;5.05;4.57;;;;;;;21.22;70.31;101045.53;2097606;28;20184;-71
2022/06/26 04:16:24;;;;;;;5.18;4.78;;;;;;;21.49;69.44;101047.44;2096734;28;20048;-70
2022/06/26 04:17:27;;;;;;;5.45;4.78;;;;;;;21.64;68.21;101046.41;2089154;28;20041;-70
2022/06/26 04:18:39;;;;;;;5.05;4.60;;;;;;;22.14;67.01;101043.00;2090193;28;20056;-70
2022/06/26 04:19:43;;;;;;;7.78;4.70;;;;;;;22.45;65.05;101048.06;2088915;28;20108;-70
2022/06/26 04:20:48;;;;;;;4.53;4.13;;;;;;;22.82;65.24;101039.06;2089430;28;20049;-70
2022/06/26 04:21:49;;;;;;;6.25;4.53;;;;;;;23.23;63.33;101041.50;2097313;28;25767;-70
2022/06/26 04:23:04;;;;;;;4.03;3.72;;;;;;;23.38;60.31;101035.88;2097290;28;20040;-70
2022/06/26 04:24:07;;;;;;;4.50;4.10;;;;;;;23.60;60.94;101036.00;2096268;28;21061;-70
2022/06/26 04:25:10;;;;;;;4.93;4.32;;;;;;;23.53;60.48;101037.47;2096936;28;20037;-70
2022/06/26 04:26:12;;;;;;;6.43;4.20;;;;;;;23.66;60.21;101039.25;2097126;28;20053;-70
2022/06/26 04:27:14;;;;;;;5.93;4.82;;;;;;;24.02;59.41;101030.97;2096962;28;20970;-71
2022/06/26 04:28:16;;;;;;;7.93;4.60;;;;;;;24.62;57.59;101033.59;2097403;28;20080;-70
2022/06/26 04:29:20;;;;;;;7.05;4.22;;;;;;;24.81;56.39;101027.47;2088435;28;20041;-70
2022/06/26 04:30:22;;;;;;;6.22;4.25;;;;;;;25.08;56.26;101026.19;2081114;28;20042;-69
2022/06/26 04:31:24;;;;;;;5.18;4.00;;;;;;;25.49;55.63;101019.16;2096737;28;20056;-70
2022/06/26 04:32:28;;;;;;;8.23;3.78;;;;;;;25.94;54.13;101029.09;2097091;28;20188;-71
2022/06/26 04:33:31;;;;;;;4.80;3.60;;;;;;;26.37;52.01;101026.19;2088746;28;20163;-70
2022/06/26 04:34:39;;;;;;;3.88;3.47;;;;;;;26.63;50.67;101029.38;2089375;28;20185;-70
2022/06/26 04:35:46;;;;;;;5.43;4.03;;;;;;;26.58;49.79;101039.03;2089208;28;20042;-70
2022/06/26 04:36:51;;;;;;;4.40;4.00;;;;;;;26.36;50.90;101037.28;2097096;28;21036;-70
2022/06/26 04:37:56;;;;;;;5.00;4.43;;;;;;;26.59;50.54;101033.38;2099183;28;20806;-71
2022/06/26 04:38:58;;;;;;;4.70;4.30;;;;;;;26.91;50.99;101032.38;2088775;28;20044;-71
2022/06/26 04:40:00;;;;;;;5.03;4.05;;;;;;;27.34;48.52;101042.22;2096907;28;20144;-70
2022/06/26 04:41:31;;;;;;;6.13;4.00;;;;;;;27.59;48.57;101027.03;2097113;28;20045;-71
2022/06/26 04:42:26;;;;;;;5.28;3.88;;;;;;;27.86;46.10;101035.59;2096754;28;21614;-71
2022/06/26 04:43:28;;;;;;;4.53;4.10;;;;;;;27.38;47.33;101037.31;2096953;28;20822;-71
2022/06/26 04:44:33;;;;;;;5.22;3.65;;;;;;;27.57;48.12;101028.22;2097638;28;20033;-71
2022/06/26 04:45:37;;;;;;;4.95;4.50;;;;;;;27.45;47.62;101035.72;2097375;28;20071;-71
2022/06/26 04:46:41;;;;;;;4.47;3.70;;;;;;;27.67;46.50;101034.56;2097077;28;20929;-71
2022/06/26 04:47:45;;;;;;;4.07;3.67;;;;;;;27.89;47.57;101044.44;2095120;28;20130;-71
2022/06/26 04:48:51;;;;;;;4.43;3.80;;;;;;;28.23;45.65;101037.59;2089288;28;21210;-71
2022/06/26 04:49:54;;;;;;;4.95;4.55;;;;;;;27.77;46.69;101043.69;2088577;28;20037;-70
2022/06/26 04:50:58;;;;;;;5.00;4.50;;;;;;;27.47;46.67;101043.84;2096987;28;20944;-71
2022/06/26 04:52:00;;;;;;;5.03;4.50;;;;;;;26.80;48.98;101048.97;2095924;28;20037;-69
2022/06/26 04:53:10;;;;;;;;;;;;;;;25.65;50.23;101055.22;2089293;28;20037;-71
2022/06/26 04:54:12;;;;;;;5.72;5.32;;;;;;;25.60;52.02;101052.00;2088316;28;19925;-70
2022/06/26 04:55:19;;;;;;;6.50;4.85;;;;;;;25.69;52.22;101047.59;2089249;28;20113;-71
2022/06/26 04:56:22;;;;;;;5.50;4.80;;;;;;;25.72;51.72;101044.63;2088623;28;20045;-71
2022/06/26 04:57:31;;;;;;;5.40;4.78;;;;;;;26.25;50.09;101047.34;2098004;28;20041;-71
2022/06/26 04:58:33;;;;;;;7.53;4.68;;;;;;;25.98;51.16;101041.53;2096804;28;20917;-70